sensor_id;sensor_type;location;lat;lon;timestamp;P1;durP1;ratioP1;P2;durP2;ratioP2
16667;SDS011;8447;52.630;4.734;2023-07-24T00:01:18;10.33;;;2.70;;
16667;SDS011;8447;52.630;4.734;2023-07-24T00:03:44;5.60;;;2.73;;
16667;SDS011;8447;52.630;4.734;2023-07-24T00:06:11;6.97;;;2.73;;
16667;SDS011;8447;52.630;4.734;2023-07-24T00:08:37;8.30;;;3.10;;
16667;SDS011;8447;52.630;4.734;2023-07-24T00:11:07;5.37;;;3.17;;
16667;SDS011;8447;52.630;4.734;2023-07-24T00:13:34;5.40;;;2.73;;
16667;SDS011;8447;52.630;4.734;2023-07-24T00:16:00;7.07;;;3.10;;
16667;SDS011;8447;52.630;4.734;2023-07-24T00:18:27;4.40;;;2.60;;
16667;SDS011;8447;52.630;4.734;2023-07-24T00:20:53;10.00;;;3.03;;
16667;SDS011;8447;52.630;4.734;2023-07-24T00:23:19;7.87;;;2.87;;
16667;SDS011;8447;52.630;4.734;2023-07-24T00:25:46;7.43;;;2.73;;
16667;SDS011;8447;52.630;4.734;2023-07-24T00:28:13;6.43;;;2.80;;
16667;SDS011;8447;52.630;4.734;2023-07-24T00:30:40;9.03;;;3.00;;
16667;SDS011;8447;52.630;4.734;2023-07-24T00:33:06;7.47;;;2.87;;
16667;SDS011;8447;52.630;4.734;2023-07-24T00:35:32;10.10;;;3.33;;
16667;SDS011;8447;52.630;4.734;2023-07-24T00:37:59;7.80;;;3.20;;
16667;SDS011;8447;52.630;4.734;2023-07-24T00:40:25;17.17;;;3.10;;
16667;SDS011;8447;52.630;4.734;2023-07-24T00:42:51;6.47;;;2.50;;
16667;SDS011;8447;52.630;4.734;2023-07-24T00:45:19;7.07;;;2.63;;
16667;SDS011;8447;52.630;4.734;2023-07-24T00:47:46;6.93;;;2.60;;
16667;SDS011;8447;52.630;4.734;2023-07-24T00:50:12;8.90;;;3.10;;
16667;SDS011;8447;52.630;4.734;2023-07-24T00:52:39;10.53;;;2.53;;
16667;SDS011;8447;52.630;4.734;2023-07-24T00:55:06;8.07;;;2.80;;
16667;SDS011;8447;52.630;4.734;2023-07-24T00:57:33;8.30;;;2.83;;
16667;SDS011;8447;52.630;4.734;2023-07-24T00:59:59;10.17;;;3.20;;
16667;SDS011;8447;52.630;4.734;2023-07-24T01:02:27;9.80;;;2.63;;
16667;SDS011;8447;52.630;4.734;2023-07-24T01:04:54;6.17;;;2.03;;
16667;SDS011;8447;52.630;4.734;2023-07-24T01:07:20;7.53;;;2.33;;
16667;SDS011;8447;52.630;4.734;2023-07-24T01:09:46;5.27;;;2.50;;
16667;SDS011;8447;52.630;4.734;2023-07-24T01:12:15;7.77;;;2.77;;
16667;SDS011;8447;52.630;4.734;2023-07-24T01:14:44;7.33;;;2.70;;
16667;SDS011;8447;52.630;4.734;2023-07-24T01:17:13;7.57;;;2.53;;
16667;SDS011;8447;52.630;4.734;2023-07-24T01:19:43;9.10;;;2.80;;
16667;SDS011;8447;52.630;4.734;2023-07-24T01:22:14;7.67;;;2.40;;
16667;SDS011;8447;52.630;4.734;2023-07-24T01:24:51;8.13;;;2.57;;
16667;SDS011;8447;52.630;4.734;2023-07-24T01:27:21;8.73;;;2.40;;
16667;SDS011;8447;52.630;4.734;2023-07-24T01:29:49;8.20;;;2.83;;
16667;SDS011;8447;52.630;4.734;2023-07-24T01:32:15;7.30;;;2.40;;
16667;SDS011;8447;52.630;4.734;2023-07-24T01:34:42;6.57;;;2.50;;
16667;SDS011;8447;52.630;4.734;2023-07-24T01:37:08;9.67;;;2.77;;
16667;SDS011;8447;52.630;4.734;2023-07-24T01:39:35;9.23;;;2.27;;
16667;SDS011;8447;52.630;4.734;2023-07-24T01:42:02;5.03;;;2.03;;
16667;SDS011;8447;52.630;4.734;2023-07-24T01:44:29;7.57;;;2.67;;
16667;SDS011;8447;52.630;4.734;2023-07-24T01:46:56;11.13;;;3.30;;
16667;SDS011;8447;52.630;4.734;2023-07-24T01:49:22;11.97;;;2.27;;
16667;SDS011;8447;52.630;4.734;2023-07-24T01:51:49;7.80;;;2.47;;
16667;SDS011;8447;52.630;4.734;2023-07-24T01:54:15;7.10;;;2.30;;
16667;SDS011;8447;52.630;4.734;2023-07-24T01:56:41;8.83;;;2.73;;
16667;SDS011;8447;52.630;4.734;2023-07-24T01:59:08;6.90;;;2.40;;
16667;SDS011;8447;52.630;4.734;2023-07-24T02:01:36;9.73;;;3.30;;
16667;SDS011;8447;52.630;4.734;2023-07-24T02:04:03;9.87;;;2.50;;
16667;SDS011;8447;52.630;4.734;2023-07-24T02:06:29;12.47;;;2.70;;
16667;SDS011;8447;52.630;4.734;2023-07-24T02:08:55;8.90;;;2.33;;
16667;SDS011;8447;52.630;4.734;2023-07-24T02:11:22;9.63;;;2.80;;
16667;SDS011;8447;52.630;4.734;2023-07-24T02:13:48;12.23;;;2.80;;
16667;SDS011;8447;52.630;4.734;2023-07-24T02:16:15;6.30;;;2.57;;
16667;SDS011;8447;52.630;4.734;2023-07-24T02:18:43;7.10;;;2.80;;
16667;SDS011;8447;52.630;4.734;2023-07-24T02:21:10;8.53;;;2.43;;
16667;SDS011;8447;52.630;4.734;2023-07-24T02:23:36;4.20;;;2.07;;
16667;SDS011;8447;52.630;4.734;2023-07-24T02:26:02;10.10;;;2.83;;
16667;SDS011;8447;52.630;4.734;2023-07-24T02:28:29;10.70;;;2.60;;
16667;SDS011;8447;52.630;4.734;2023-07-24T02:30:55;7.07;;;2.83;;
16667;SDS011;8447;52.630;4.734;2023-07-24T02:33:22;6.53;;;2.33;;
16667;SDS011;8447;52.630;4.734;2023-07-24T02:35:52;8.53;;;2.50;;
16667;SDS011;8447;52.630;4.734;2023-07-24T02:38:19;13.07;;;2.90;;
16667;SDS011;8447;52.630;4.734;2023-07-24T02:40:45;11.07;;;3.13;;
16667;SDS011;8447;52.630;4.734;2023-07-24T02:43:12;11.00;;;2.83;;
16667;SDS011;8447;52.630;4.734;2023-07-24T02:45:38;6.27;;;2.83;;
16667;SDS011;8447;52.630;4.734;2023-07-24T02:48:04;11.30;;;3.03;;
16667;SDS011;8447;52.630;4.734;2023-07-24T02:50:32;6.47;;;2.33;;
16667;SDS011;8447;52.630;4.734;2023-07-24T02:52:59;9.60;;;3.10;;
16667;SDS011;8447;52.630;4.734;2023-07-24T02:55:26;7.30;;;2.87;;
16667;SDS011;8447;52.630;4.734;2023-07-24T02:57:52;8.27;;;2.80;;
16667;SDS011;8447;52.630;4.734;2023-07-24T03:00:19;11.73;;;3.27;;
16667;SDS011;8447;52.630;4.734;2023-07-24T03:02:45;16.13;;;3.80;;
16667;SDS011;8447;52.630;4.734;2023-07-24T03:05:12;9.53;;;3.10;;
16667;SDS011;8447;52.630;4.734;2023-07-24T03:07:38;7.20;;;2.70;;
16667;SDS011;8447;52.630;4.734;2023-07-24T03:10:06;7.80;;;3.23;;
16667;SDS011;8447;52.630;4.734;2023-07-24T03:12:33;6.30;;;2.90;;
16667;SDS011;8447;52.630;4.734;2023-07-24T03:15:01;8.70;;;2.80;;
16667;SDS011;8447;52.630;4.734;2023-07-24T03:17:27;10.57;;;2.83;;
16667;SDS011;8447;52.630;4.734;2023-07-24T03:19:54;9.07;;;3.60;;
16667;SDS011;8447;52.630;4.734;2023-07-24T03:22:21;9.07;;;3.37;;
16667;SDS011;8447;52.630;4.734;2023-07-24T03:24:47;10.40;;;3.40;;
16667;SDS011;8447;52.630;4.734;2023-07-24T03:27:15;10.37;;;2.93;;
16667;SDS011;8447;52.630;4.734;2023-07-24T03:29:41;11.00;;;2.73;;
16667;SDS011;8447;52.630;4.734;2023-07-24T03:32:08;7.40;;;3.00;;
16667;SDS011;8447;52.630;4.734;2023-07-24T03:34:34;8.93;;;2.57;;
16667;SDS011;8447;52.630;4.734;2023-07-24T03:37:00;10.20;;;2.80;;
16667;SDS011;8447;52.630;4.734;2023-07-24T03:39:28;8.47;;;3.07;;
16667;SDS011;8447;52.630;4.734;2023-07-24T03:41:54;6.90;;;3.07;;
16667;SDS011;8447;52.630;4.734;2023-07-24T03:44:21;7.63;;;3.23;;
16667;SDS011;8447;52.630;4.734;2023-07-24T03:46:47;6.73;;;2.77;;
16667;SDS011;8447;52.630;4.734;2023-07-24T03:49:14;12.13;;;3.27;;
16667;SDS011;8447;52.630;4.734;2023-07-24T03:51:40;7.23;;;2.67;;
16667;SDS011;8447;52.630;4.734;2023-07-24T03:54:06;11.47;;;2.97;;
16667;SDS011;8447;52.630;4.734;2023-07-24T03:56:33;10.03;;;2.93;;
16667;SDS011;8447;52.630;4.734;2023-07-24T03:58:59;6.37;;;3.13;;
16667;SDS011;8447;52.630;4.734;2023-07-24T04:01:27;9.03;;;3.00;;
16667;SDS011;8447;52.630;4.734;2023-07-24T04:03:53;10.93;;;3.77;;
16667;SDS011;8447;52.630;4.734;2023-07-24T04:06:19;13.83;;;3.53;;
16667;SDS011;8447;52.630;4.734;2023-07-24T04:08:46;7.23;;;3.30;;
16667;SDS011;8447;52.630;4.734;2023-07-24T04:11:12;13.03;;;3.63;;
16667;SDS011;8447;52.630;4.734;2023-07-24T04:13:39;9.13;;;3.23;;
16667;SDS011;8447;52.630;4.734;2023-07-24T04:16:05;6.53;;;3.10;;
16667;SDS011;8447;52.630;4.734;2023-07-24T04:18:33;6.83;;;2.67;;
16667;SDS011;8447;52.630;4.734;2023-07-24T04:20:59;7.80;;;2.87;;
16667;SDS011;8447;52.630;4.734;2023-07-24T04:23:25;10.47;;;3.40;;
16667;SDS011;8447;52.630;4.734;2023-07-24T04:25:52;10.17;;;3.10;;
16667;SDS011;8447;52.630;4.734;2023-07-24T04:28:18;8.30;;;3.40;;
16667;SDS011;8447;52.630;4.734;2023-07-24T04:30:45;7.63;;;2.80;;
16667;SDS011;8447;52.630;4.734;2023-07-24T04:33:11;9.20;;;3.33;;
16667;SDS011;8447;52.630;4.734;2023-07-24T04:35:39;6.13;;;2.57;;
16667;SDS011;8447;52.630;4.734;2023-07-24T04:38:05;9.10;;;3.17;;
16667;SDS011;8447;52.630;4.734;2023-07-24T04:40:32;13.93;;;3.73;;
16667;SDS011;8447;52.630;4.734;2023-07-24T04:42:58;8.87;;;3.37;;
16667;SDS011;8447;52.630;4.734;2023-07-24T04:45:25;7.83;;;2.93;;
16667;SDS011;8447;52.630;4.734;2023-07-24T04:47:51;8.87;;;3.27;;
16667;SDS011;8447;52.630;4.734;2023-07-24T04:50:18;13.50;;;3.50;;
16667;SDS011;8447;52.630;4.734;2023-07-24T04:52:46;9.20;;;3.50;;
16667;SDS011;8447;52.630;4.734;2023-07-24T04:55:12;5.93;;;2.83;;
16667;SDS011;8447;52.630;4.734;2023-07-24T04:57:38;8.43;;;3.60;;
16667;SDS011;8447;52.630;4.734;2023-07-24T05:00:05;9.70;;;2.87;;
16667;SDS011;8447;52.630;4.734;2023-07-24T05:02:32;6.60;;;2.77;;
16667;SDS011;8447;52.630;4.734;2023-07-24T05:04:58;9.43;;;3.67;;
16667;SDS011;8447;52.630;4.734;2023-07-24T05:07:24;11.93;;;3.57;;
16667;SDS011;8447;52.630;4.734;2023-07-24T05:09:52;7.07;;;3.30;;
16667;SDS011;8447;52.630;4.734;2023-07-24T05:12:19;13.43;;;3.00;;
16667;SDS011;8447;52.630;4.734;2023-07-24T05:14:45;6.70;;;2.90;;
16667;SDS011;8447;52.630;4.734;2023-07-24T05:17:11;10.30;;;2.87;;
16667;SDS011;8447;52.630;4.734;2023-07-24T05:19:38;8.63;;;3.07;;
16667;SDS011;8447;52.630;4.734;2023-07-24T05:22:04;10.43;;;3.83;;
16667;SDS011;8447;52.630;4.734;2023-07-24T05:24:30;8.20;;;3.30;;
16667;SDS011;8447;52.630;4.734;2023-07-24T05:26:58;9.30;;;2.97;;
16667;SDS011;8447;52.630;4.734;2023-07-24T05:29:25;12.67;;;3.07;;
16667;SDS011;8447;52.630;4.734;2023-07-24T05:31:51;8.20;;;3.47;;
16667;SDS011;8447;52.630;4.734;2023-07-24T05:34:17;6.73;;;3.20;;
16667;SDS011;8447;52.630;4.734;2023-07-24T05:36:44;9.13;;;3.60;;
16667;SDS011;8447;52.630;4.734;2023-07-24T05:39:10;11.50;;;3.77;;
16667;SDS011;8447;52.630;4.734;2023-07-24T05:41:36;5.50;;;2.93;;
16667;SDS011;8447;52.630;4.734;2023-07-24T05:44:04;7.33;;;3.17;;
16667;SDS011;8447;52.630;4.734;2023-07-24T05:46:30;10.70;;;3.70;;
16667;SDS011;8447;52.630;4.734;2023-07-24T05:48:57;6.67;;;2.63;;
16667;SDS011;8447;52.630;4.734;2023-07-24T05:51:25;11.87;;;3.80;;
16667;SDS011;8447;52.630;4.734;2023-07-24T05:53:51;9.33;;;4.20;;
16667;SDS011;8447;52.630;4.734;2023-07-24T05:56:18;11.97;;;3.73;;
16667;SDS011;8447;52.630;4.734;2023-07-24T05:58:44;8.90;;;3.70;;
16667;SDS011;8447;52.630;4.734;2023-07-24T06:01:12;7.80;;;3.53;;
16667;SDS011;8447;52.630;4.734;2023-07-24T06:03:39;11.70;;;3.70;;
16667;SDS011;8447;52.630;4.734;2023-07-24T06:06:05;11.80;;;3.93;;
16667;SDS011;8447;52.630;4.734;2023-07-24T06:08:31;9.37;;;3.77;;
16667;SDS011;8447;52.630;4.734;2023-07-24T06:10:58;10.97;;;4.10;;
16667;SDS011;8447;52.630;4.734;2023-07-24T06:13:24;10.67;;;3.93;;
16667;SDS011;8447;52.630;4.734;2023-07-24T06:15:51;7.30;;;3.57;;
16667;SDS011;8447;52.630;4.734;2023-07-24T06:18:19;8.10;;;3.07;;
16667;SDS011;8447;52.630;4.734;2023-07-24T06:20:46;12.47;;;4.23;;
16667;SDS011;8447;52.630;4.734;2023-07-24T06:23:12;9.10;;;3.67;;
16667;SDS011;8447;52.630;4.734;2023-07-24T06:25:38;13.13;;;3.67;;
16667;SDS011;8447;52.630;4.734;2023-07-24T06:28:04;12.23;;;3.90;;
16667;SDS011;8447;52.630;4.734;2023-07-24T06:30:31;5.03;;;2.60;;
16667;SDS011;8447;52.630;4.734;2023-07-24T06:32:57;10.83;;;3.70;;
16667;SDS011;8447;52.630;4.734;2023-07-24T06:35:25;10.97;;;4.07;;
16667;SDS011;8447;52.630;4.734;2023-07-24T06:37:54;12.73;;;4.17;;
16667;SDS011;8447;52.630;4.734;2023-07-24T06:40:20;9.43;;;3.80;;
16667;SDS011;8447;52.630;4.734;2023-07-24T06:42:46;7.37;;;3.37;;
16667;SDS011;8447;52.630;4.734;2023-07-24T06:45:13;7.90;;;3.60;;
16667;SDS011;8447;52.630;4.734;2023-07-24T06:47:39;7.63;;;3.33;;
16667;SDS011;8447;52.630;4.734;2023-07-24T06:50:06;11.10;;;3.27;;
16667;SDS011;8447;52.630;4.734;2023-07-24T06:52:34;11.60;;;3.23;;
16667;SDS011;8447;52.630;4.734;2023-07-24T06:55:01;6.50;;;3.20;;
16667;SDS011;8447;52.630;4.734;2023-07-24T06:57:27;10.47;;;3.90;;
16667;SDS011;8447;52.630;4.734;2023-07-24T06:59:53;13.77;;;3.73;;
16667;SDS011;8447;52.630;4.734;2023-07-24T07:02:20;10.10;;;3.77;;
16667;SDS011;8447;52.630;4.734;2023-07-24T07:04:46;4.83;;;1.87;;
16667;SDS011;8447;52.630;4.734;2023-07-24T07:07:12;8.77;;;3.50;;
16667;SDS011;8447;52.630;4.734;2023-07-24T07:09:40;11.13;;;4.60;;
16667;SDS011;8447;52.630;4.734;2023-07-24T07:12:07;7.80;;;3.37;;
16667;SDS011;8447;52.630;4.734;2023-07-24T07:14:33;14.47;;;3.60;;
16667;SDS011;8447;52.630;4.734;2023-07-24T07:17:00;10.13;;;3.23;;
16667;SDS011;8447;52.630;4.734;2023-07-24T07:19:26;6.93;;;2.57;;
16667;SDS011;8447;52.630;4.734;2023-07-24T07:21:53;5.07;;;3.00;;
16667;SDS011;8447;52.630;4.734;2023-07-24T07:24:20;8.80;;;2.77;;
16667;SDS011;8447;52.630;4.734;2023-07-24T07:26:48;14.53;;;3.40;;
16667;SDS011;8447;52.630;4.734;2023-07-24T07:29:15;10.00;;;3.50;;
16667;SDS011;8447;52.630;4.734;2023-07-24T07:31:41;10.17;;;3.97;;
16667;SDS011;8447;52.630;4.734;2023-07-24T07:34:07;9.23;;;3.27;;
16667;SDS011;8447;52.630;4.734;2023-07-24T07:36:34;6.83;;;2.63;;
16667;SDS011;8447;52.630;4.734;2023-07-24T07:39:02;12.13;;;3.37;;
16667;SDS011;8447;52.630;4.734;2023-07-24T07:41:29;10.27;;;3.63;;
16667;SDS011;8447;52.630;4.734;2023-07-24T07:43:56;9.20;;;3.37;;
16667;SDS011;8447;52.630;4.734;2023-07-24T07:46:23;8.77;;;3.17;;
16667;SDS011;8447;52.630;4.734;2023-07-24T07:48:49;7.20;;;3.30;;
16667;SDS011;8447;52.630;4.734;2023-07-24T07:51:16;9.27;;;3.80;;
16667;SDS011;8447;52.630;4.734;2023-07-24T07:53:42;5.23;;;3.00;;
16667;SDS011;8447;52.630;4.734;2023-07-24T07:56:08;13.90;;;3.60;;
16667;SDS011;8447;52.630;4.734;2023-07-24T07:58:35;12.37;;;3.03;;
16667;SDS011;8447;52.630;4.734;2023-07-24T08:01:04;5.63;;;3.10;;
16667;SDS011;8447;52.630;4.734;2023-07-24T08:03:31;9.13;;;3.77;;
16667;SDS011;8447;52.630;4.734;2023-07-24T08:05:58;6.00;;;3.40;;
16667;SDS011;8447;52.630;4.734;2023-07-24T08:08:24;8.93;;;3.67;;
16667;SDS011;8447;52.630;4.734;2023-07-24T08:10:50;9.87;;;3.63;;
16667;SDS011;8447;52.630;4.734;2023-07-24T08:13:17;6.60;;;3.07;;
16667;SDS011;8447;52.630;4.734;2023-07-24T08:15:43;6.77;;;2.83;;
16667;SDS011;8447;52.630;4.734;2023-07-24T08:18:11;10.00;;;3.83;;
16667;SDS011;8447;52.630;4.734;2023-07-24T08:20:37;5.57;;;2.97;;
16667;SDS011;8447;52.630;4.734;2023-07-24T08:23:05;5.00;;;3.07;;
16667;SDS011;8447;52.630;4.734;2023-07-24T08:25:31;9.93;;;3.83;;
16667;SDS011;8447;52.630;4.734;2023-07-24T08:27:58;5.83;;;3.03;;
16667;SDS011;8447;52.630;4.734;2023-07-24T08:30:24;5.17;;;2.57;;
16667;SDS011;8447;52.630;4.734;2023-07-24T08:32:51;5.00;;;3.23;;
16667;SDS011;8447;52.630;4.734;2023-07-24T08:35:19;6.27;;;2.87;;
16667;SDS011;8447;52.630;4.734;2023-07-24T08:37:46;6.17;;;3.53;;
16667;SDS011;8447;52.630;4.734;2023-07-24T08:40:12;6.23;;;3.40;;
16667;SDS011;8447;52.630;4.734;2023-07-24T08:42:38;5.10;;;3.40;;
16667;SDS011;8447;52.630;4.734;2023-07-24T08:45:08;7.73;;;3.47;;
16667;SDS011;8447;52.630;4.734;2023-07-24T08:47:34;8.47;;;3.40;;
16667;SDS011;8447;52.630;4.734;2023-07-24T08:50:02;6.20;;;3.20;;
16667;SDS011;8447;52.630;4.734;2023-07-24T08:52:30;9.40;;;3.60;;
16667;SDS011;8447;52.630;4.734;2023-07-24T08:54:57;5.93;;;2.70;;
16667;SDS011;8447;52.630;4.734;2023-07-24T08:57:24;3.63;;;2.50;;
16667;SDS011;8447;52.630;4.734;2023-07-24T08:59:50;4.47;;;2.70;;
16667;SDS011;8447;52.630;4.734;2023-07-24T09:02:16;4.67;;;2.57;;
16667;SDS011;8447;52.630;4.734;2023-07-24T09:04:43;5.03;;;3.37;;
16667;SDS011;8447;52.630;4.734;2023-07-24T09:07:09;9.07;;;2.63;;
16667;SDS011;8447;52.630;4.734;2023-07-24T09:09:39;4.97;;;3.00;;
16667;SDS011;8447;52.630;4.734;2023-07-24T09:12:08;6.63;;;3.60;;
16667;SDS011;8447;52.630;4.734;2023-07-24T09:14:34;7.17;;;3.57;;
16667;SDS011;8447;52.630;4.734;2023-07-24T09:17:01;3.77;;;2.70;;
16667;SDS011;8447;52.630;4.734;2023-07-24T09:19:28;5.57;;;2.97;;
16667;SDS011;8447;52.630;4.734;2023-07-24T09:21:54;7.90;;;2.93;;
16667;SDS011;8447;52.630;4.734;2023-07-24T09:24:21;6.43;;;3.00;;
16667;SDS011;8447;52.630;4.734;2023-07-24T09:26:52;5.37;;;3.37;;
16667;SDS011;8447;52.630;4.734;2023-07-24T09:29:18;7.23;;;3.50;;
16667;SDS011;8447;52.630;4.734;2023-07-24T09:31:45;5.53;;;3.50;;
16667;SDS011;8447;52.630;4.734;2023-07-24T09:34:15;5.70;;;3.17;;
16667;SDS011;8447;52.630;4.734;2023-07-24T09:36:42;7.33;;;3.40;;
16667;SDS011;8447;52.630;4.734;2023-07-24T09:39:08;4.30;;;2.90;;
16667;SDS011;8447;52.630;4.734;2023-07-24T09:41:36;5.73;;;3.23;;
16667;SDS011;8447;52.630;4.734;2023-07-24T09:44:04;8.30;;;4.10;;
16667;SDS011;8447;52.630;4.734;2023-07-24T09:46:31;5.60;;;3.40;;
16667;SDS011;8447;52.630;4.734;2023-07-24T09:48:57;5.83;;;3.27;;
16667;SDS011;8447;52.630;4.734;2023-07-24T09:51:24;3.53;;;2.30;;
16667;SDS011;8447;52.630;4.734;2023-07-24T09:53:52;5.67;;;2.90;;
16667;SDS011;8447;52.630;4.734;2023-07-24T09:56:19;6.20;;;2.83;;
16667;SDS011;8447;52.630;4.734;2023-07-24T09:58:46;7.63;;;2.97;;
16667;SDS011;8447;52.630;4.734;2023-07-24T10:01:15;6.77;;;2.90;;
16667;SDS011;8447;52.630;4.734;2023-07-24T10:03:45;7.20;;;3.43;;
16667;SDS011;8447;52.630;4.734;2023-07-24T10:06:12;4.53;;;2.97;;
16667;SDS011;8447;52.630;4.734;2023-07-24T10:08:40;7.33;;;3.03;;
16667;SDS011;8447;52.630;4.734;2023-07-24T10:11:06;5.43;;;2.60;;
16667;SDS011;8447;52.630;4.734;2023-07-24T10:13:32;8.67;;;2.30;;
16667;SDS011;8447;52.630;4.734;2023-07-24T10:16:01;5.80;;;2.30;;
16667;SDS011;8447;52.630;4.734;2023-07-24T10:18:30;4.30;;;2.23;;
16667;SDS011;8447;52.630;4.734;2023-07-24T10:21:00;3.97;;;2.00;;
16667;SDS011;8447;52.630;4.734;2023-07-24T10:23:26;5.83;;;2.10;;
16667;SDS011;8447;52.630;4.734;2023-07-24T10:25:53;3.43;;;1.60;;
16667;SDS011;8447;52.630;4.734;2023-07-24T10:28:29;2.57;;;1.60;;
16667;SDS011;8447;52.630;4.734;2023-07-24T10:30:56;4.40;;;1.13;;
16667;SDS011;8447;52.630;4.734;2023-07-24T10:33:22;3.87;;;1.50;;
16667;SDS011;8447;52.630;4.734;2023-07-24T10:35:52;1.63;;;1.00;;
16667;SDS011;8447;52.630;4.734;2023-07-24T10:38:19;7.17;;;1.90;;
16667;SDS011;8447;52.630;4.734;2023-07-24T10:40:46;2.37;;;1.53;;
16667;SDS011;8447;52.630;4.734;2023-07-24T10:43:14;2.57;;;1.33;;
16667;SDS011;8447;52.630;4.734;2023-07-24T10:45:46;3.50;;;1.60;;
16667;SDS011;8447;52.630;4.734;2023-07-24T10:48:13;6.40;;;1.90;;
16667;SDS011;8447;52.630;4.734;2023-07-24T10:50:40;3.83;;;1.77;;
16667;SDS011;8447;52.630;4.734;2023-07-24T10:53:07;3.63;;;1.60;;
16667;SDS011;8447;52.630;4.734;2023-07-24T10:55:34;3.53;;;1.67;;
16667;SDS011;8447;52.630;4.734;2023-07-24T10:58:00;2.67;;;1.53;;
16667;SDS011;8447;52.630;4.734;2023-07-24T11:00:27;3.10;;;1.73;;
16667;SDS011;8447;52.630;4.734;2023-07-24T11:02:53;4.10;;;1.83;;
16667;SDS011;8447;52.630;4.734;2023-07-24T11:05:20;3.33;;;1.73;;
16667;SDS011;8447;52.630;4.734;2023-07-24T11:07:46;2.73;;;1.60;;
16667;SDS011;8447;52.630;4.734;2023-07-24T11:10:17;4.50;;;1.90;;
16667;SDS011;8447;52.630;4.734;2023-07-24T11:12:44;5.00;;;1.83;;
16667;SDS011;8447;52.630;4.734;2023-07-24T11:15:10;4.63;;;2.27;;
16667;SDS011;8447;52.630;4.734;2023-07-24T11:17:37;6.03;;;2.17;;
16667;SDS011;8447;52.630;4.734;2023-07-24T11:20:06;3.73;;;1.77;;
16667;SDS011;8447;52.630;4.734;2023-07-24T11:22:33;2.07;;;1.70;;
16667;SDS011;8447;52.630;4.734;2023-07-24T11:24:59;2.10;;;1.67;;
16667;SDS011;8447;52.630;4.734;2023-07-24T11:27:28;1.30;;;1.17;;
16667;SDS011;8447;52.630;4.734;2023-07-24T11:29:54;1.67;;;0.80;;
16667;SDS011;8447;52.630;4.734;2023-07-24T11:32:21;0.97;;;0.73;;
16667;SDS011;8447;52.630;4.734;2023-07-24T11:34:48;0.60;;;0.60;;
16667;SDS011;8447;52.630;4.734;2023-07-24T11:37:15;1.87;;;0.87;;
16667;SDS011;8447;52.630;4.734;2023-07-24T11:39:41;0.60;;;0.60;;
16667;SDS011;8447;52.630;4.734;2023-07-24T11:42:08;0.70;;;0.70;;
16667;SDS011;8447;52.630;4.734;2023-07-24T11:44:35;0.90;;;0.60;;
16667;SDS011;8447;52.630;4.734;2023-07-24T11:47:02;0.70;;;0.60;;
16667;SDS011;8447;52.630;4.734;2023-07-24T11:49:29;1.13;;;0.60;;
16667;SDS011;8447;52.630;4.734;2023-07-24T11:51:59;1.30;;;0.70;;
16667;SDS011;8447;52.630;4.734;2023-07-24T11:54:25;0.90;;;0.47;;
16667;SDS011;8447;52.630;4.734;2023-07-24T11:56:52;1.20;;;0.80;;
16667;SDS011;8447;52.630;4.734;2023-07-24T11:59:18;1.63;;;0.70;;
16667;SDS011;8447;52.630;4.734;2023-07-24T12:01:46;2.47;;;0.83;;
16667;SDS011;8447;52.630;4.734;2023-07-24T12:04:13;3.23;;;0.93;;
16667;SDS011;8447;52.630;4.734;2023-07-24T12:06:40;5.17;;;0.87;;
16667;SDS011;8447;52.630;4.734;2023-07-24T12:09:06;4.20;;;1.00;;
16667;SDS011;8447;52.630;4.734;2023-07-24T12:11:33;8.13;;;1.30;;
16667;SDS011;8447;52.630;4.734;2023-07-24T12:13:59;3.93;;;1.13;;
16667;SDS011;8447;52.630;4.734;2023-07-24T12:16:25;5.03;;;1.50;;
16667;SDS011;8447;52.630;4.734;2023-07-24T12:18:55;7.77;;;1.77;;
16667;SDS011;8447;52.630;4.734;2023-07-24T12:21:21;3.37;;;1.00;;
16667;SDS011;8447;52.630;4.734;2023-07-24T12:23:48;4.87;;;1.10;;
16667;SDS011;8447;52.630;4.734;2023-07-24T12:26:14;8.00;;;1.23;;
16667;SDS011;8447;52.630;4.734;2023-07-24T12:28:40;6.17;;;1.30;;
16667;SDS011;8447;52.630;4.734;2023-07-24T12:31:07;8.10;;;1.47;;
16667;SDS011;8447;52.630;4.734;2023-07-24T12:33:33;3.30;;;1.00;;
16667;SDS011;8447;52.630;4.734;2023-07-24T12:36:01;3.30;;;0.80;;
16667;SDS011;8447;52.630;4.734;2023-07-24T12:38:27;4.63;;;1.00;;
16667;SDS011;8447;52.630;4.734;2023-07-24T12:40:54;3.80;;;1.10;;
16667;SDS011;8447;52.630;4.734;2023-07-24T12:43:21;6.80;;;1.37;;
16667;SDS011;8447;52.630;4.734;2023-07-24T12:45:47;3.13;;;1.10;;
16667;SDS011;8447;52.630;4.734;2023-07-24T12:48:13;5.23;;;1.10;;
16667;SDS011;8447;52.630;4.734;2023-07-24T12:50:40;7.30;;;1.30;;
16667;SDS011;8447;52.630;4.734;2023-07-24T12:53:08;3.63;;;1.20;;
16667;SDS011;8447;52.630;4.734;2023-07-24T12:55:34;6.23;;;1.60;;
16667;SDS011;8447;52.630;4.734;2023-07-24T12:58:01;4.20;;;1.27;;
16667;SDS011;8447;52.630;4.734;2023-07-24T13:00:28;5.03;;;1.23;;
16667;SDS011;8447;52.630;4.734;2023-07-24T13:02:55;3.20;;;1.40;;
16667;SDS011;8447;52.630;4.734;2023-07-24T13:05:21;6.90;;;1.10;;
16667;SDS011;8447;52.630;4.734;2023-07-24T13:07:47;3.57;;;1.10;;
16667;SDS011;8447;52.630;4.734;2023-07-24T13:10:15;6.13;;;1.00;;
16667;SDS011;8447;52.630;4.734;2023-07-24T13:12:41;2.67;;;0.80;;
16667;SDS011;8447;52.630;4.734;2023-07-24T13:15:09;4.67;;;0.80;;
16667;SDS011;8447;52.630;4.734;2023-07-24T13:17:36;3.30;;;0.90;;
16667;SDS011;8447;52.630;4.734;2023-07-24T13:20:02;9.37;;;1.60;;
16667;SDS011;8447;52.630;4.734;2023-07-24T13:22:29;3.17;;;0.80;;
16667;SDS011;8447;52.630;4.734;2023-07-24T13:24:55;2.90;;;0.97;;
16667;SDS011;8447;52.630;4.734;2023-07-24T13:27:23;2.73;;;1.30;;
16667;SDS011;8447;52.630;4.734;2023-07-24T13:29:49;1.97;;;0.90;;
16667;SDS011;8447;52.630;4.734;2023-07-24T13:32:16;2.27;;;0.83;;
16667;SDS011;8447;52.630;4.734;2023-07-24T13:34:42;3.70;;;1.03;;
16667;SDS011;8447;52.630;4.734;2023-07-24T13:37:09;2.73;;;0.70;;
16667;SDS011;8447;52.630;4.734;2023-07-24T13:39:36;2.27;;;0.80;;
16667;SDS011;8447;52.630;4.734;2023-07-24T13:42:02;3.07;;;0.70;;
16667;SDS011;8447;52.630;4.734;2023-07-24T13:44:30;4.13;;;1.00;;
16667;SDS011;8447;52.630;4.734;2023-07-24T13:46:56;1.97;;;0.60;;
16667;SDS011;8447;52.630;4.734;2023-07-24T13:49:23;2.10;;;0.70;;
16667;SDS011;8447;52.630;4.734;2023-07-24T13:51:49;1.33;;;0.40;;
16667;SDS011;8447;52.630;4.734;2023-07-24T13:54:16;2.17;;;0.53;;
16667;SDS011;8447;52.630;4.734;2023-07-24T13:56:42;3.40;;;0.80;;
16667;SDS011;8447;52.630;4.734;2023-07-24T13:59:09;1.37;;;0.43;;
16667;SDS011;8447;52.630;4.734;2023-07-24T14:01:36;1.87;;;0.60;;
16667;SDS011;8447;52.630;4.734;2023-07-24T14:04:03;1.47;;;0.37;;
16667;SDS011;8447;52.630;4.734;2023-07-24T14:06:30;1.90;;;0.50;;
16667;SDS011;8447;52.630;4.734;2023-07-24T14:08:56;2.87;;;0.87;;
16667;SDS011;8447;52.630;4.734;2023-07-24T14:11:23;1.23;;;0.70;;
16667;SDS011;8447;52.630;4.734;2023-07-24T14:13:50;2.87;;;0.67;;
16667;SDS011;8447;52.630;4.734;2023-07-24T14:16:16;1.43;;;0.50;;
16667;SDS011;8447;52.630;4.734;2023-07-24T14:18:44;1.23;;;0.60;;
16667;SDS011;8447;52.630;4.734;2023-07-24T14:21:11;2.77;;;0.60;;
16667;SDS011;8447;52.630;4.734;2023-07-24T14:23:37;1.97;;;0.70;;
16667;SDS011;8447;52.630;4.734;2023-07-24T14:26:04;3.03;;;0.77;;
16667;SDS011;8447;52.630;4.734;2023-07-24T14:28:30;3.13;;;1.10;;
16667;SDS011;8447;52.630;4.734;2023-07-24T14:30:57;4.20;;;1.20;;
16667;SDS011;8447;52.630;4.734;2023-07-24T14:33:24;1.80;;;0.60;;
16667;SDS011;8447;52.630;4.734;2023-07-24T14:35:52;3.77;;;0.73;;
16667;SDS011;8447;52.630;4.734;2023-07-24T14:38:19;2.00;;;0.40;;
16667;SDS011;8447;52.630;4.734;2023-07-24T14:40:46;3.90;;;1.07;;
16667;SDS011;8447;52.630;4.734;2023-07-24T14:43:12;3.00;;;0.60;;
16667;SDS011;8447;52.630;4.734;2023-07-24T14:45:39;3.27;;;0.57;;
16667;SDS011;8447;52.630;4.734;2023-07-24T14:48:05;3.97;;;1.00;;
16667;SDS011;8447;52.630;4.734;2023-07-24T14:50:34;3.97;;;1.13;;
16667;SDS011;8447;52.630;4.734;2023-07-24T14:53:01;1.23;;;0.80;;
16667;SDS011;8447;52.630;4.734;2023-07-24T14:55:28;2.63;;;1.03;;